Maxal Raise — V3VZ4 — position and weather

sailwx.info

Track history (hours):
 
Tides and Currents Weather Stations Pressure Air Temp Water Temp Dewpoint Dewpoint Depression Visibility Wind Speed Wind Dir Waves Ship Positions

Maxal Raise

Last reported at 2018-Jun-16 00:33 UTC. Time now 2018-Jun-21 22:05 UTC.
Position N 41°13' E 029°07'.

Length 89 m; draft 4.9 m.

Type: Cargo ship. MMSI: 312297000.

Date/timePositionNaut miles runAvg speedWind from/ knotsBaromVisibWave heightAir tempDewpointWater temp
2018-Jun-16 00:33N 41°13' E 029°07'5 3.2
2018-Jun-15 22:56N 41°16' E 029°02'0 0.0
2018-Jun-15 22:20N 41°16' E 029°02'0 0.0
2018-Jun-15 21:56N 41°16' E 029°02'0 0.0
2018-Jun-15 17:44N 41°16' E 029°02'0 0.0
2018-Jun-15 17:29N 41°16' E 029°02'0 0.0
2018-Jun-15 16:59N 41°16' E 029°02'0 0.0
2018-Jun-15 16:29N 41°16' E 029°02'0 0.0
2018-Jun-15 14:20N 41°16' E 029°02'0 0.1
2018-Jun-15 13:38N 41°16' E 029°02'5 4.8
2018-Jun-15 12:35N 41°21' E 029°06'1 7.7
2018-Jun-15 12:23N 41°22' E 029°07'3 7.9
2018-Jun-15 12:01N 41°25' E 029°09'108 8.0
2018-Jun-14 22:27N 43°09' E 029°47'9 8.1
2018-Jun-14 21:21N 43°17' E 029°50'14 7.8
2018-Jun-14 19:31N 43°31' E 029°55'0 7.7
2018-Jun-14 19:31N 43°31' E 029°55'611.9
2018-Jun-14 19:00N 43°37' E 029°57'2037.0
2018-Jun-14 18:28N 43°57' E 030°04'1120.9
2018-Jun-14 17:55N 44°08' E 030°08'512.0
2018-Jun-14 17:28N 44°13' E 030°09'1 1.1
2018-Jun-14 17:00N 44°13' E 030°10'1 1.2
2018-Jun-14 16:24N 44°14' E 030°10'0 1.1
2018-Jun-14 15:58N 44°15' E 030°10'1 1.3
2018-Jun-14 15:30N 44°15' E 030°10'1 1.4
2018-Jun-14 14:54N 44°16' E 030°11'0 1.1
2018-Jun-14 14:28N 44°16' E 030°11'1 1.2
2018-Jun-14 13:57N 44°17' E 030°11'44 6.6
2018-Jun-14 07:15N 44°60' E 030°26'2 7.7
2018-Jun-14 06:57N 45°02' E 030°27'4 7.8
2018-Jun-14 06:27N 45°06' E 030°28'4 7.8
2018-Jun-14 06:00N 45°09' E 030°29'4 7.9
2018-Jun-14 05:29N 45°13' E 030°30'4 7.9
2018-Jun-14 05:00N 45°17' E 030°32'4 7.8
2018-Jun-14 04:31N 45°21' E 030°33'4 7.7
2018-Jun-14 04:00N 45°25' E 030°35'4 7.6
2018-Jun-14 03:31N 45°28' E 030°36'4 7.8
2018-Jun-14 03:00N 45°32' E 030°38'4 7.9
2018-Jun-14 02:30N 45°36' E 030°39'4 7.9
2018-Jun-14 02:01N 45°39' E 030°41'4 7.9
2018-Jun-14 01:31N 45°43' E 030°42'4 7.9
2018-Jun-14 01:00N 45°47' E 030°44'4 7.7
2018-Jun-14 00:31N 45°51' E 030°45'4 7.5
2018-Jun-14 00:00N 45°54' E 030°46'4 7.6
2018-Jun-13 23:30N 45°58' E 030°48'4 7.7
2018-Jun-13 23:00N 46°02' E 030°49'4 7.8
2018-Jun-13 22:31N 46°06' E 030°50'4 7.8
2018-Jun-13 22:01N 46°09' E 030°52'4 7.7
2018-Jun-13 21:30N 46°13' E 030°53'4 7.6
2018-Jun-13 21:00N 46°17' E 030°54'4 7.7
2018-Jun-13 20:30N 46°21' E 030°55'4 7.7
2018-Jun-13 20:00N 46°25' E 030°55'4 7.6
2018-Jun-13 19:30N 46°28' E 030°55'4 7.5
2018-Jun-13 19:01N 46°32' E 030°55'3 6.8
2018-Jun-13 18:30N 46°34' E 030°60'5 6.5
2018-Jun-13 17:46N 46°38' E 031°01'0 1.0
2018-Jun-13 17:29N 46°39' E 031°01'0 0.0
2018-Jun-13 17:00N 46°39' E 031°01'0 0.0
2018-Jun-13 12:18N 46°39' E 031°01'0 0.0
2018-Jun-13 11:45N 46°39' E 031°01'0 0.0
2018-Jun-13 11:30N 46°39' E 031°01'0 0.0
2018-Jun-13 10:24N 46°39' E 031°01'0 0.0
2018-Jun-13 10:00N 46°39' E 031°01'0 0.0
2018-Jun-13 09:27N 46°39' E 031°01'0 0.0
2018-Jun-12 23:18N 46°39' E 031°01'0 0.0
2018-Jun-12 22:42N 46°39' E 031°01'0 0.0
2018-Jun-12 22:21N 46°39' E 031°01'0 0.0
2018-Jun-12 20:15N 46°39' E 031°01'0 0.0
2018-Jun-12 19:09N 46°39' E 031°01'0 0.0
2018-Jun-12 14:54N 46°39' E 031°01'0 0.0
2018-Jun-11 01:31N 46°39' E 031°01'0 0.2
2018-Jun-11 01:29N 46°39' E 031°01'3 4.3
2018-Jun-11 00:51N 46°36' E 031°01'3 8.3
2018-Jun-11 00:30N 46°33' E 030°60'4 8.3
2018-Jun-11 00:00N 46°29' E 030°57'5 9.0
2018-Jun-10 23:26N 46°24' E 030°57'2 5.6
2018-Jun-10 23:00N 46°22' E 030°57'38 7.8
2018-Jun-10 18:07N 45°45' E 030°47'2 8.6
2018-Jun-10 17:55N 45°43' E 030°46'4 8.7
2018-Jun-10 17:30N 45°39' E 030°45'4 9.0
2018-Jun-10 17:00N 45°35' E 030°44'4 9.0
2018-Jun-10 16:30N 45°31' E 030°42'5 9.0
2018-Jun-10 16:00N 45°26' E 030°41'5 9.0
2018-Jun-10 15:25N 45°21' E 030°39'4 9.2
2018-Jun-10 15:00N 45°18' E 030°37'9 9.1
2018-Jun-10 14:00N 45°09' E 030°34'5 9.1
2018-Jun-10 13:30N 45°04' E 030°32'5 9.0
2018-Jun-10 13:00N 44°60' E 030°31'6 8.9
2018-Jun-10 12:18N 44°54' E 030°29'5 8.8
2018-Jun-10 11:41N 44°49' E 030°27'4 8.7
2018-Jun-10 11:15N 44°45' E 030°25'3 8.6
2018-Jun-10 10:51N 44°42' E 030°24'7 8.6
2018-Jun-10 10:03N 44°35' E 030°22'1 8.6
2018-Jun-10 09:57N 44°34' E 030°22'5 8.7
2018-Jun-10 09:22N 44°29' E 030°20'3 8.7
2018-Jun-10 08:59N 44°26' E 030°19'4 9.0
2018-Jun-10 08:30N 44°22' E 030°17'5 8.9
2018-Jun-10 07:59N 44°17' E 030°16'4 8.9
2018-Jun-10 07:30N 44°13' E 030°14'7 9.0
2018-Jun-10 06:45N 44°07' E 030°12'2 8.9
2018-Jun-10 06:30N 44°04' E 030°11'4 8.5
2018-Jun-10 06:00N 44°00' E 030°09'6 8.1
2018-Jun-10 05:16N 43°55' E 030°07'2 8.1
2018-Jun-10 05:00N 43°53' E 030°07'4 8.1
2018-Jun-10 04:30N 43°49' E 030°05'4 8.1
2018-Jun-10 04:00N 43°45' E 030°03'4 8.0
2018-Jun-10 03:30N 43°41' E 030°02'4 7.9
2018-Jun-10 03:00N 43°37' E 030°01'4 7.9
2018-Jun-10 02:30N 43°33' E 029°60'4 8.0
2018-Jun-10 02:00N 43°29' E 029°59'4 8.2
2018-Jun-10 01:30N 43°25' E 029°57'4 8.3
2018-Jun-10 01:00N 43°21' E 029°56'4 8.2
2018-Jun-10 00:30N 43°17' E 029°55'4 8.1
2018-Jun-10 00:00N 43°13' E 029°53'4 8.2
2018-Jun-09 23:30N 43°09' E 029°52'4 8.3
2018-Jun-09 23:00N 43°05' E 029°50'4 8.3
2018-Jun-09 22:30N 43°01' E 029°49'4 8.4
2018-Jun-09 22:00N 42°57' E 029°47'4 8.5
2018-Jun-09 21:30N 42°53' E 029°46'4 8.5
2018-Jun-09 21:00N 42°49' E 029°44'4 8.4
2018-Jun-09 20:30N 42°45' E 029°43'4 8.4
2018-Jun-09 20:00N 42°41' E 029°42'4 8.3
2018-Jun-09 19:30N 42°37' E 029°40'4 8.2
2018-Jun-09 19:00N 42°33' E 029°39'4 8.2
2018-Jun-09 18:30N 42°29' E 029°37'5 8.1
2018-Jun-09 17:54N 42°24' E 029°36'4 8.3
2018-Jun-09 17:24N 42°20' E 029°35'3 8.2
2018-Jun-09 17:00N 42°17' E 029°34'4 8.2
2018-Jun-09 16:29N 42°13' E 029°32'4 8.3
2018-Jun-09 16:00N 42°09' E 029°31'9 8.4
2018-Jun-09 15:00N 42°01' E 029°28'4 8.4
2018-Jun-09 14:30N 41°57' E 029°26'4 8.4
2018-Jun-09 14:00N 41°53' E 029°25'4 8.5
2018-Jun-09 13:29N 41°49' E 029°24'4 8.8
2018-Jun-09 13:00N 41°44' E 029°22'5 9.0
2018-Jun-09 12:29N 41°40' E 029°21'5 8.9
2018-Jun-09 11:58N 41°36' E 029°19'4 8.9
2018-Jun-09 11:28N 41°31' E 029°18'5 9.1
2018-Jun-09 10:56N 41°27' E 029°16'7 8.8
2018-Jun-09 10:07N 41°20' E 029°13'1 8.8
2018-Jun-09 09:59N 41°19' E 029°13'4 8.6
2018-Jun-09 09:30N 41°15' E 029°10'8 7.7
2018-Jun-09 08:29N 41°09' E 029°04'3 5.9
2018-Jun-09 08:00N 41°06' E 029°04'3 5.8
2018-Jun-09 07:30N 41°03' E 029°03'219 6.7
2018-Jun-07 22:44N 39°19' E 024°50'  
Track history (hours):
 
Tides and Currents Weather Stations Pressure Air Temp Water Temp Dewpoint Dewpoint Depression Visibility Wind Speed Wind Dir Waves Ship Positions

Maxal Raise

Last reported at 2018-Jun-16 00:33 UTC. Time now 2018-Jun-21 22:05 UTC.
Position N 41°13' E 029°07'.

Length 89 m; draft 4.9 m.

Type: Cargo ship. MMSI: 312297000.

Date/timePositionNaut miles runAvg speedWind from/ knotsBaromVisibWave heightAir tempDewpointWater temp
2018-Jun-16 00:33N 41°13' E 029°07'5 3.2
2018-Jun-15 22:56N 41°16' E 029°02'0 0.0
2018-Jun-15 22:20N 41°16' E 029°02'0 0.0
2018-Jun-15 21:56N 41°16' E 029°02'0 0.0
2018-Jun-15 17:44N 41°16' E 029°02'0 0.0
2018-Jun-15 17:29N 41°16' E 029°02'0 0.0
2018-Jun-15 16:59N 41°16' E 029°02'0 0.0
2018-Jun-15 16:29N 41°16' E 029°02'0 0.0
2018-Jun-15 14:20N 41°16' E 029°02'0 0.1
2018-Jun-15 13:38N 41°16' E 029°02'5 4.8
2018-Jun-15 12:35N 41°21' E 029°06'1 7.7
2018-Jun-15 12:23N 41°22' E 029°07'3 7.9
2018-Jun-15 12:01N 41°25' E 029°09'108 8.0
2018-Jun-14 22:27N 43°09' E 029°47'9 8.1
2018-Jun-14 21:21N 43°17' E 029°50'14 7.8
2018-Jun-14 19:31N 43°31' E 029°55'0 7.7
2018-Jun-14 19:31N 43°31' E 029°55'611.9
2018-Jun-14 19:00N 43°37' E 029°57'2037.0
2018-Jun-14 18:28N 43°57' E 030°04'1120.9
2018-Jun-14 17:55N 44°08' E 030°08'512.0
2018-Jun-14 17:28N 44°13' E 030°09'1 1.1
2018-Jun-14 17:00N 44°13' E 030°10'1 1.2
2018-Jun-14 16:24N 44°14' E 030°10'0 1.1
2018-Jun-14 15:58N 44°15' E 030°10'1 1.3
2018-Jun-14 15:30N 44°15' E 030°10'1 1.4
2018-Jun-14 14:54N 44°16' E 030°11'0 1.1
2018-Jun-14 14:28N 44°16' E 030°11'1 1.2
2018-Jun-14 13:57N 44°17' E 030°11'44 6.6
2018-Jun-14 07:15N 44°60' E 030°26'2 7.7
2018-Jun-14 06:57N 45°02' E 030°27'4 7.8
2018-Jun-14 06:27N 45°06' E 030°28'4 7.8
2018-Jun-14 06:00N 45°09' E 030°29'4 7.9
2018-Jun-14 05:29N 45°13' E 030°30'4 7.9
2018-Jun-14 05:00N 45°17' E 030°32'4 7.8
2018-Jun-14 04:31N 45°21' E 030°33'4 7.7
2018-Jun-14 04:00N 45°25' E 030°35'4 7.6
2018-Jun-14 03:31N 45°28' E 030°36'4 7.8
2018-Jun-14 03:00N 45°32' E 030°38'4 7.9
2018-Jun-14 02:30N 45°36' E 030°39'4 7.9
2018-Jun-14 02:01N 45°39' E 030°41'4 7.9
2018-Jun-14 01:31N 45°43' E 030°42'4 7.9
2018-Jun-14 01:00N 45°47' E 030°44'4 7.7
2018-Jun-14 00:31N 45°51' E 030°45'4 7.5
2018-Jun-14 00:00N 45°54' E 030°46'4 7.6
2018-Jun-13 23:30N 45°58' E 030°48'4 7.7
2018-Jun-13 23:00N 46°02' E 030°49'4 7.8
2018-Jun-13 22:31N 46°06' E 030°50'4 7.8
2018-Jun-13 22:01N 46°09' E 030°52'4 7.7
2018-Jun-13 21:30N 46°13' E 030°53'4 7.6
2018-Jun-13 21:00N 46°17' E 030°54'4 7.7
2018-Jun-13 20:30N 46°21' E 030°55'4 7.7
2018-Jun-13 20:00N 46°25' E 030°55'4 7.6
2018-Jun-13 19:30N 46°28' E 030°55'4 7.5
2018-Jun-13 19:01N 46°32' E 030°55'3 6.8
2018-Jun-13 18:30N 46°34' E 030°60'5 6.5
2018-Jun-13 17:46N 46°38' E 031°01'0 1.0
2018-Jun-13 17:29N 46°39' E 031°01'0 0.0
2018-Jun-13 17:00N 46°39' E 031°01'0 0.0
2018-Jun-13 12:18N 46°39' E 031°01'0 0.0
2018-Jun-13 11:45N 46°39' E 031°01'0 0.0
2018-Jun-13 11:30N 46°39' E 031°01'0 0.0
2018-Jun-13 10:24N 46°39' E 031°01'0 0.0
2018-Jun-13 10:00N 46°39' E 031°01'0 0.0
2018-Jun-13 09:27N 46°39' E 031°01'0 0.0
2018-Jun-12 23:18N 46°39' E 031°01'0 0.0
2018-Jun-12 22:42N 46°39' E 031°01'0 0.0
2018-Jun-12 22:21N 46°39' E 031°01'0 0.0
2018-Jun-12 20:15N 46°39' E 031°01'0 0.0
2018-Jun-12 19:09N 46°39' E 031°01'0 0.0
2018-Jun-12 14:54N 46°39' E 031°01'0 0.0
2018-Jun-11 01:31N 46°39' E 031°01'0 0.2
2018-Jun-11 01:29N 46°39' E 031°01'3 4.3
2018-Jun-11 00:51N 46°36' E 031°01'3 8.3
2018-Jun-11 00:30N 46°33' E 030°60'4 8.3
2018-Jun-11 00:00N 46°29' E 030°57'5 9.0
2018-Jun-10 23:26N 46°24' E 030°57'2 5.6
2018-Jun-10 23:00N 46°22' E 030°57'38 7.8
2018-Jun-10 18:07N 45°45' E 030°47'2 8.6
2018-Jun-10 17:55N 45°43' E 030°46'4 8.7
2018-Jun-10 17:30N 45°39' E 030°45'4 9.0
2018-Jun-10 17:00N 45°35' E 030°44'4 9.0
2018-Jun-10 16:30N 45°31' E 030°42'5 9.0
2018-Jun-10 16:00N 45°26' E 030°41'5 9.0
2018-Jun-10 15:25N 45°21' E 030°39'4 9.2
2018-Jun-10 15:00N 45°18' E 030°37'9 9.1
2018-Jun-10 14:00N 45°09' E 030°34'5 9.1
2018-Jun-10 13:30N 45°04' E 030°32'5 9.0
2018-Jun-10 13:00N 44°60' E 030°31'6 8.9
2018-Jun-10 12:18N 44°54' E 030°29'5 8.8
2018-Jun-10 11:41N 44°49' E 030°27'4 8.7
2018-Jun-10 11:15N 44°45' E 030°25'3 8.6
2018-Jun-10 10:51N 44°42' E 030°24'7 8.6
2018-Jun-10 10:03N 44°35' E 030°22'1 8.6
2018-Jun-10 09:57N 44°34' E 030°22'5 8.7
2018-Jun-10 09:22N 44°29' E 030°20'3 8.7
2018-Jun-10 08:59N 44°26' E 030°19'4 9.0
2018-Jun-10 08:30N 44°22' E 030°17'5 8.9
2018-Jun-10 07:59N 44°17' E 030°16'4 8.9
2018-Jun-10 07:30N 44°13' E 030°14'7 9.0
2018-Jun-10 06:45N 44°07' E 030°12'2 8.9
2018-Jun-10 06:30N 44°04' E 030°11'4 8.5
2018-Jun-10 06:00N 44°00' E 030°09'6 8.1
2018-Jun-10 05:16N 43°55' E 030°07'2 8.1
2018-Jun-10 05:00N 43°53' E 030°07'4 8.1
2018-Jun-10 04:30N 43°49' E 030°05'4 8.1
2018-Jun-10 04:00N 43°45' E 030°03'4 8.0
2018-Jun-10 03:30N 43°41' E 030°02'4 7.9
2018-Jun-10 03:00N 43°37' E 030°01'4 7.9
2018-Jun-10 02:30N 43°33' E 029°60'4 8.0
2018-Jun-10 02:00N 43°29' E 029°59'4 8.2
2018-Jun-10 01:30N 43°25' E 029°57'4 8.3
2018-Jun-10 01:00N 43°21' E 029°56'4 8.2
2018-Jun-10 00:30N 43°17' E 029°55'4 8.1
2018-Jun-10 00:00N 43°13' E 029°53'4 8.2
2018-Jun-09 23:30N 43°09' E 029°52'4 8.3
2018-Jun-09 23:00N 43°05' E 029°50'4 8.3
2018-Jun-09 22:30N 43°01' E 029°49'4 8.4
2018-Jun-09 22:00N 42°57' E 029°47'4 8.5
2018-Jun-09 21:30N 42°53' E 029°46'4 8.5
2018-Jun-09 21:00N 42°49' E 029°44'4 8.4
2018-Jun-09 20:30N 42°45' E 029°43'4 8.4
2018-Jun-09 20:00N 42°41' E 029°42'4 8.3
2018-Jun-09 19:30N 42°37' E 029°40'4 8.2
2018-Jun-09 19:00N 42°33' E 029°39'4 8.2
2018-Jun-09 18:30N 42°29' E 029°37'5 8.1
2018-Jun-09 17:54N 42°24' E 029°36'4 8.3
2018-Jun-09 17:24N 42°20' E 029°35'3 8.2
2018-Jun-09 17:00N 42°17' E 029°34'4 8.2
2018-Jun-09 16:29N 42°13' E 029°32'4 8.3
2018-Jun-09 16:00N 42°09' E 029°31'9 8.4
2018-Jun-09 15:00N 42°01' E 029°28'4 8.4
2018-Jun-09 14:30N 41°57' E 029°26'4 8.4
2018-Jun-09 14:00N 41°53' E 029°25'4 8.5
2018-Jun-09 13:29N 41°49' E 029°24'4 8.8
2018-Jun-09 13:00N 41°44' E 029°22'5 9.0
2018-Jun-09 12:29N 41°40' E 029°21'5 8.9
2018-Jun-09 11:58N 41°36' E 029°19'4 8.9
2018-Jun-09 11:28N 41°31' E 029°18'5 9.1
2018-Jun-09 10:56N 41°27' E 029°16'7 8.8
2018-Jun-09 10:07N 41°20' E 029°13'1 8.8
2018-Jun-09 09:59N 41°19' E 029°13'4 8.6
2018-Jun-09 09:30N 41°15' E 029°10'8 7.7
2018-Jun-09 08:29N 41°09' E 029°04'3 5.9
2018-Jun-09 08:00N 41°06' E 029°04'3 5.8
2018-Jun-09 07:30N 41°03' E 029°03'219 6.7
2018-Jun-07 22:44N 39°19' E 024°50'  

Dump ship's entire track history